createdAt,value
2023-01-21T00:00:55.139Z,0.00
2023-01-21T00:01:55.169Z,0.00
2023-01-21T00:02:55.105Z,0.00
2023-01-21T00:03:55.097Z,0.00
2023-01-21T00:04:55.090Z,0.00
2023-01-21T00:05:55.090Z,0.00
2023-01-21T00:06:55.073Z,0.00
2023-01-21T00:07:55.073Z,0.00
2023-01-21T00:08:55.116Z,0.00
2023-01-21T00:09:55.060Z,0.00
2023-01-21T00:10:55.072Z,0.00
2023-01-21T00:11:55.022Z,0.00
2023-01-21T00:12:55.034Z,0.00
2023-01-21T00:13:55.677Z,0.00
2023-01-21T00:14:55.016Z,0.00
2023-01-21T00:15:55.023Z,0.00
2023-01-21T00:16:54.968Z,0.00
2023-01-21T00:17:55.003Z,0.00
2023-01-21T00:18:54.948Z,0.00
2023-01-21T00:19:54.944Z,0.00
2023-01-21T00:20:54.935Z,0.00
2023-01-21T00:21:54.962Z,0.00
2023-01-21T00:22:54.925Z,0.00
2023-01-21T00:23:54.899Z,0.00
2023-01-21T00:24:54.890Z,0.00
2023-01-21T00:25:54.891Z,0.00
2023-01-21T00:26:54.900Z,0.00
2023-01-21T00:27:54.882Z,0.00
2023-01-21T00:28:54.863Z,0.00
2023-01-21T00:29:54.840Z,0.00
2023-01-21T00:30:54.942Z,0.00
2023-01-21T00:31:54.941Z,0.00
2023-01-21T00:32:54.855Z,0.00
2023-01-21T00:33:54.798Z,0.00
2023-01-21T00:34:54.800Z,0.00
2023-01-21T00:35:54.769Z,0.00
2023-01-21T00:36:56.565Z,0.00
2023-01-21T00:37:54.775Z,0.00
2023-01-21T00:38:54.776Z,0.00
2023-01-21T00:39:54.749Z,0.00
2023-01-21T00:40:54.716Z,0.00
2023-01-21T00:41:54.706Z,0.00
2023-01-21T00:42:54.765Z,0.00
2023-01-21T00:43:54.717Z,0.00
2023-01-21T00:44:54.709Z,0.00
2023-01-21T00:45:54.721Z,0.00
2023-01-21T00:46:54.690Z,0.00
2023-01-21T00:47:54.703Z,0.00
2023-01-21T00:48:54.671Z,0.00
2023-01-21T00:49:54.669Z,0.00
2023-01-21T00:50:54.671Z,0.00
2023-01-21T00:51:54.610Z,0.00
2023-01-21T00:52:54.605Z,0.00
2023-01-21T00:53:54.627Z,0.00
2023-01-21T00:54:54.613Z,0.00
2023-01-21T00:55:54.587Z,0.00
2023-01-21T00:56:54.517Z,0.00
2023-01-21T00:57:54.568Z,0.00
2023-01-21T00:58:54.620Z,0.00
2023-01-21T00:59:54.561Z,0.00
2023-01-21T01:00:54.527Z,0.00
2023-01-21T01:01:54.527Z,0.00
2023-01-21T01:02:54.551Z,0.00
2023-01-21T01:03:54.542Z,0.00
2023-01-21T01:04:54.544Z,0.00
2023-01-21T01:05:54.494Z,0.00
2023-01-21T01:06:54.476Z,0.00
2023-01-21T01:07:54.451Z,0.00
2023-01-21T01:08:54.463Z,0.00
2023-01-21T01:09:54.437Z,0.00
2023-01-21T01:10:54.442Z,0.00
2023-01-21T01:11:54.413Z,0.00
2023-01-21T01:12:54.459Z,0.00
2023-01-21T01:13:54.433Z,0.00
2023-01-21T01:14:54.423Z,0.00
2023-01-21T01:15:54.415Z,0.00
2023-01-21T01:16:54.374Z,0.00
2023-01-21T01:17:54.385Z,0.00
2023-01-21T01:18:54.374Z,0.00
2023-01-21T01:19:54.398Z,0.00
2023-01-21T01:20:54.392Z,0.00
2023-01-21T01:21:54.350Z,0.00
2023-01-21T01:22:54.334Z,0.00
2023-01-21T01:23:54.335Z,0.00
2023-01-21T01:24:54.311Z,0.00
2023-01-21T01:25:54.276Z,0.00
2023-01-21T01:26:54.279Z,0.00
2023-01-21T01:27:54.359Z,0.00
2023-01-21T01:28:54.259Z,0.00
2023-01-21T01:29:54.264Z,0.00
2023-01-21T01:30:54.315Z,0.00
2023-01-21T01:31:54.228Z,0.00
2023-01-21T01:32:54.215Z,0.00
2023-01-21T01:33:54.208Z,0.00
2023-01-21T01:34:54.230Z,0.00
2023-01-21T01:35:54.208Z,0.00
2023-01-21T01:36:54.220Z,0.00
2023-01-21T01:37:54.173Z,0.00
2023-01-21T01:38:54.178Z,0.00
2023-01-21T01:39:54.160Z,0.00
2023-01-21T01:40:54.152Z,0.00
2023-01-21T01:41:54.160Z,0.00
2023-01-21T01:42:54.114Z,0.00
2023-01-21T01:43:54.119Z,0.00
2023-01-21T01:44:54.138Z,0.00
2023-01-21T01:45:54.134Z,0.00
2023-01-21T01:46:54.084Z,0.00
2023-01-21T01:47:54.068Z,0.00
2023-01-21T01:48:54.060Z,0.00
2023-01-21T01:49:54.045Z,0.00
2023-01-21T01:50:54.081Z,0.00
2023-01-21T01:51:54.036Z,0.00
2023-01-21T01:52:54.095Z,0.00
2023-01-21T01:53:53.996Z,0.00
2023-01-21T01:54:54.012Z,0.00
2023-01-21T01:55:54.024Z,0.00
2023-01-21T01:56:53.982Z,0.00
2023-01-21T01:57:53.993Z,0.00
2023-01-21T01:58:53.947Z,0.00
2023-01-21T01:59:53.945Z,0.00
2023-01-21T02:00:53.946Z,0.00
2023-01-21T02:01:53.948Z,0.00
2023-01-21T02:02:54.026Z,0.00
2023-01-21T02:03:53.918Z,0.00
2023-01-21T02:04:53.910Z,0.00
2023-01-21T02:05:53.880Z,0.00
2023-01-21T02:06:53.872Z,0.00
2023-01-21T02:07:53.885Z,0.00
2023-01-21T02:08:53.864Z,0.00
2023-01-21T02:09:53.859Z,0.00
2023-01-21T02:10:53.876Z,0.00
2023-01-21T02:11:53.827Z,0.00
2023-01-21T02:12:53.821Z,0.00
2023-01-21T02:13:53.797Z,0.00
2023-01-21T02:14:53.796Z,0.00
2023-01-21T02:15:53.810Z,0.00
2023-01-21T02:16:53.783Z,0.00
2023-01-21T02:17:53.776Z,0.00
2023-01-21T02:18:53.752Z,0.00
2023-01-21T02:19:53.742Z,0.00
2023-01-21T02:20:53.728Z,0.00
2023-01-21T02:21:53.754Z,0.00
2023-01-21T02:22:53.704Z,0.00
2023-01-21T02:23:53.694Z,0.00
2023-01-21T02:24:53.700Z,0.00
2023-01-21T02:25:53.686Z,0.00
2023-01-21T02:26:53.696Z,0.00
2023-01-21T02:27:53.684Z,0.00
2023-01-21T02:28:53.723Z,0.00
2023-01-21T02:29:53.665Z,0.00
2023-01-21T02:30:53.659Z,0.00
2023-01-21T02:31:53.706Z,0.00
2023-01-21T02:32:53.651Z,0.00
2023-01-21T02:33:53.598Z,0.00
2023-01-21T02:34:54.366Z,0.00
2023-01-21T02:35:53.583Z,0.00
2023-01-21T02:36:53.585Z,0.00
2023-01-21T02:37:53.584Z,0.00
2023-01-21T02:38:53.580Z,0.00
2023-01-21T02:39:53.581Z,0.00
2023-01-21T02:40:53.556Z,0.00
2023-01-21T02:41:53.512Z,0.00
2023-01-21T02:42:53.518Z,0.00
2023-01-21T02:43:53.534Z,0.00
2023-01-21T02:44:53.501Z,0.00
2023-01-21T02:45:53.482Z,0.00
2023-01-21T02:46:53.566Z,0.00
2023-01-21T02:47:53.705Z,0.00
2023-01-21T02:48:53.485Z,0.00
2023-01-21T02:49:53.465Z,0.00
2023-01-21T02:50:53.462Z,0.00
2023-01-21T02:51:53.439Z,0.00
2023-01-21T02:52:55.171Z,0.00
2023-01-21T02:53:53.433Z,0.00
2023-01-21T02:54:53.460Z,0.00
2023-01-21T02:55:53.458Z,0.00
2023-01-21T02:56:53.399Z,0.00
2023-01-21T02:57:53.396Z,0.00
2023-01-21T02:58:53.384Z,0.00
2023-01-21T02:59:53.367Z,0.00
2023-01-21T03:00:53.419Z,0.00
2023-01-21T03:01:53.355Z,0.00
2023-01-21T03:02:53.311Z,0.00
2023-01-21T03:03:53.356Z,0.00
2023-01-21T03:04:53.314Z,0.00
2023-01-21T03:05:53.301Z,0.00
2023-01-21T03:06:53.277Z,0.00
2023-01-21T03:07:53.261Z,0.00
2023-01-21T03:08:53.307Z,0.00
2023-01-21T03:09:53.279Z,0.00
2023-01-21T03:10:53.255Z,0.00
2023-01-21T03:11:53.221Z,0.00
2023-01-21T03:12:53.227Z,0.00
2023-01-21T03:13:53.192Z,0.00
2023-01-21T03:14:53.240Z,0.00
2023-01-21T03:15:53.189Z,0.00
2023-01-21T03:16:53.202Z,0.00
2023-01-21T03:17:53.157Z,0.00
2023-01-21T03:18:53.152Z,0.00
2023-01-21T03:19:53.132Z,0.00
2023-01-21T03:20:53.162Z,0.00
2023-01-21T03:21:53.139Z,0.00
2023-01-21T03:22:53.136Z,0.00
2023-01-21T03:23:53.138Z,0.00
2023-01-21T03:24:53.148Z,0.00
2023-01-21T03:25:53.163Z,0.00
2023-01-21T03:26:53.100Z,0.00
2023-01-21T03:27:53.103Z,0.00
2023-01-21T03:28:53.113Z,0.00
2023-01-21T03:29:53.090Z,0.00
2023-01-21T03:30:53.125Z,0.00
2023-01-21T03:31:53.099Z,0.00
2023-01-21T03:32:53.056Z,0.00
2023-01-21T03:33:53.009Z,0.00
2023-01-21T03:34:53.062Z,0.00
2023-01-21T03:35:52.989Z,0.00
2023-01-21T03:36:53.031Z,0.00
2023-01-21T03:37:52.962Z,0.00
2023-01-21T03:38:52.948Z,0.00
2023-01-21T03:39:52.965Z,0.00
2023-01-21T03:40:52.935Z,0.00
2023-01-21T03:41:52.931Z,0.00
2023-01-21T03:42:52.936Z,0.00
2023-01-21T03:43:52.900Z,0.00
2023-01-21T03:44:52.892Z,0.00
2023-01-21T03:45:52.964Z,0.00
2023-01-21T03:46:52.875Z,0.00
2023-01-21T03:47:52.886Z,0.00
2023-01-21T03:48:52.921Z,0.00
2023-01-21T03:49:52.884Z,0.00
2023-01-21T03:50:52.898Z,0.00
2023-01-21T03:51:52.818Z,0.00
2023-01-21T03:52:52.857Z,0.00
2023-01-21T03:53:52.992Z,0.00
2023-01-21T03:54:52.807Z,0.00
2023-01-21T03:55:52.810Z,0.00
2023-01-21T03:56:52.785Z,0.00
2023-01-21T03:57:52.782Z,0.00
2023-01-21T03:58:52.786Z,0.00
2023-01-21T03:59:52.781Z,0.00
2023-01-21T04:00:52.852Z,0.00
2023-01-21T04:01:52.756Z,0.00
2023-01-21T04:02:52.726Z,0.00
2023-01-21T04:03:52.709Z,0.00
2023-01-21T04:04:52.713Z,0.00
2023-01-21T04:05:52.724Z,0.00
2023-01-21T04:06:52.720Z,0.00
2023-01-21T04:07:52.668Z,0.00
2023-01-21T04:08:52.659Z,0.00
2023-01-21T04:09:52.655Z,0.00
2023-01-21T04:10:52.686Z,0.00
2023-01-21T04:11:52.632Z,0.00
2023-01-21T04:12:52.620Z,0.00
2023-01-21T04:13:52.642Z,0.00
2023-01-21T04:14:52.632Z,0.00
2023-01-21T04:15:52.609Z,0.00
2023-01-21T04:16:52.599Z,0.00
2023-01-21T04:17:52.571Z,0.00
2023-01-21T04:18:52.574Z,0.00
2023-01-21T04:19:52.557Z,0.00
2023-01-21T04:20:52.569Z,0.00
2023-01-21T04:21:52.540Z,0.00
2023-01-21T04:22:52.551Z,0.00
2023-01-21T04:23:52.522Z,0.00
2023-01-21T04:24:52.507Z,0.00
2023-01-21T04:25:52.513Z,0.00
2023-01-21T04:26:52.496Z,0.00
2023-01-21T04:27:52.478Z,0.00
2023-01-21T04:28:52.465Z,0.00
2023-01-21T04:29:52.488Z,0.00
2023-01-21T04:30:52.615Z,0.00
2023-01-21T04:31:52.584Z,0.00
2023-01-21T04:32:52.429Z,0.00
2023-01-21T04:33:52.443Z,0.00
2023-01-21T04:34:52.423Z,0.00
2023-01-21T04:35:52.422Z,0.00
2023-01-21T04:36:52.411Z,0.00
2023-01-21T04:37:52.395Z,0.00
2023-01-21T04:38:52.372Z,0.00
2023-01-21T04:39:52.359Z,0.00
2023-01-21T04:40:52.366Z,0.00
2023-01-21T04:41:52.342Z,0.00
2023-01-21T04:42:52.354Z,0.00
2023-01-21T04:43:52.332Z,0.00
2023-01-21T04:44:52.310Z,0.00
2023-01-21T04:45:52.328Z,0.00
2023-01-21T04:46:52.296Z,0.00
2023-01-21T04:47:52.307Z,0.00
2023-01-21T04:48:52.281Z,0.00
2023-01-21T04:49:52.255Z,0.00
2023-01-21T04:50:52.310Z,0.00
2023-01-21T04:51:52.246Z,0.00
2023-01-21T04:52:52.257Z,0.00
2023-01-21T04:53:52.245Z,0.00
2023-01-21T04:54:52.244Z,0.00
2023-01-21T04:55:52.211Z,0.00
2023-01-21T04:56:52.194Z,0.00
2023-01-21T04:57:52.191Z,0.00
2023-01-21T04:58:52.200Z,0.00
2023-01-21T04:59:52.145Z,0.00
2023-01-21T05:00:52.209Z,0.00
2023-01-21T05:01:52.163Z,0.00
2023-01-21T05:02:52.155Z,0.00
2023-01-21T05:03:52.141Z,0.00
2023-01-21T05:04:52.109Z,0.00
2023-01-21T05:05:52.111Z,0.00
2023-01-21T05:06:52.115Z,0.00
2023-01-21T05:07:52.069Z,0.00
2023-01-21T05:08:52.101Z,0.00
2023-01-21T05:09:52.076Z,0.00
2023-01-21T05:10:52.103Z,0.00
2023-01-21T05:11:52.074Z,0.00
2023-01-21T05:12:52.027Z,0.00
2023-01-21T05:13:52.052Z,0.00
2023-01-21T05:14:52.021Z,0.00
2023-01-21T05:15:52.186Z,0.00
2023-01-21T05:16:52.056Z,0.00
2023-01-21T05:17:52.004Z,0.00
2023-01-21T05:18:52.011Z,0.00
2023-01-21T05:19:51.971Z,0.00
2023-01-21T05:20:51.957Z,0.00
2023-01-21T05:21:51.928Z,0.00
2023-01-21T05:22:51.943Z,0.00
2023-01-21T05:23:51.948Z,0.00
2023-01-21T05:24:51.970Z,0.00
2023-01-21T05:25:51.902Z,0.00
2023-01-21T05:26:51.958Z,0.00
2023-01-21T05:27:51.908Z,0.00
2023-01-21T05:28:51.896Z,0.00
2023-01-21T05:29:51.872Z,0.00
2023-01-21T05:30:51.935Z,0.00
2023-01-21T05:31:51.901Z,0.00
2023-01-21T05:32:51.850Z,0.00
2023-01-21T05:33:51.852Z,0.00
2023-01-21T05:34:51.817Z,0.00
2023-01-21T05:35:51.811Z,0.00
2023-01-21T05:36:51.833Z,0.00
2023-01-21T05:37:51.843Z,0.00
2023-01-21T05:38:51.790Z,0.00
2023-01-21T05:39:51.788Z,0.00
2023-01-21T05:40:51.800Z,0.00
2023-01-21T05:41:51.767Z,0.00
2023-01-21T05:42:51.828Z,0.00
2023-01-21T05:43:51.789Z,0.00
2023-01-21T05:44:51.742Z,0.00
2023-01-21T05:45:51.740Z,0.00
2023-01-21T05:46:51.697Z,0.00
2023-01-21T05:47:51.708Z,0.00
2023-01-21T05:48:51.685Z,0.00
2023-01-21T05:49:51.688Z,0.00
2023-01-21T05:50:51.759Z,0.00
2023-01-21T05:51:51.678Z,0.00
2023-01-21T05:52:51.632Z,0.00
2023-01-21T05:53:51.636Z,0.00
2023-01-21T05:55:01.464Z,0.00
2023-01-21T05:55:51.661Z,0.00
2023-01-21T05:56:51.597Z,0.00
2023-01-21T05:57:51.611Z,0.00
2023-01-21T05:58:51.569Z,0.00
2023-01-21T05:59:51.587Z,0.00
2023-01-21T06:00:51.578Z,0.00
2023-01-21T06:01:51.563Z,0.00
2023-01-21T06:02:51.561Z,0.00
2023-01-21T06:03:51.616Z,0.00
2023-01-21T06:04:51.524Z,0.00
2023-01-21T06:05:51.507Z,0.00
2023-01-21T06:06:51.546Z,0.00
2023-01-21T06:07:51.504Z,0.00
2023-01-21T06:08:51.498Z,0.00
2023-01-21T06:09:51.505Z,0.00
2023-01-21T06:10:51.471Z,0.00
2023-01-21T06:11:51.490Z,0.00
2023-01-21T06:12:51.446Z,0.00
2023-01-21T06:13:51.430Z,0.00
2023-01-21T06:14:51.419Z,0.00
2023-01-21T06:15:51.689Z,0.00
2023-01-21T06:16:51.408Z,0.00
2023-01-21T06:17:51.416Z,0.00
2023-01-21T06:18:51.381Z,0.00
2023-01-21T06:19:51.401Z,0.00
2023-01-21T06:20:51.381Z,0.00
2023-01-21T06:21:51.391Z,0.00
2023-01-21T06:22:51.447Z,0.00
2023-01-21T06:23:51.387Z,0.00
2023-01-21T06:24:51.335Z,0.00
2023-01-21T06:25:51.312Z,0.00
2023-01-21T06:26:51.336Z,0.00
2023-01-21T06:27:51.324Z,0.00
2023-01-21T06:28:51.301Z,0.00
2023-01-21T06:29:51.286Z,0.00
2023-01-21T06:30:51.355Z,0.00
2023-01-21T06:31:51.355Z,0.00
2023-01-21T06:32:51.273Z,0.00
2023-01-21T06:33:51.260Z,0.00
2023-01-21T06:34:51.165Z,0.00
2023-01-21T06:35:51.226Z,0.00
2023-01-21T06:36:51.209Z,0.00
2023-01-21T06:37:51.189Z,0.00
2023-01-21T06:38:51.210Z,0.00
2023-01-21T06:39:51.189Z,0.00
2023-01-21T06:40:51.258Z,0.00
2023-01-21T06:41:52.939Z,0.00
2023-01-21T06:42:51.102Z,0.00
2023-01-21T06:43:51.117Z,0.00
2023-01-21T06:44:51.083Z,0.00
2023-01-21T06:45:51.162Z,0.00
2023-01-21T06:47:02.260Z,0.00
2023-01-21T06:47:51.065Z,0.00
2023-01-21T06:48:51.055Z,0.00
2023-01-21T06:49:51.036Z,0.00
2023-01-21T06:50:51.128Z,0.00
2023-01-21T06:51:51.065Z,0.00
2023-01-21T06:52:51.027Z,0.00
2023-01-21T06:53:51.028Z,0.00
2023-01-21T06:54:51.041Z,0.00
2023-01-21T06:55:50.980Z,0.00
2023-01-21T06:56:50.978Z,0.00
2023-01-21T06:57:50.968Z,0.00
2023-01-21T06:58:50.949Z,0.00
2023-01-21T06:59:50.953Z,0.00
2023-01-21T07:00:50.907Z,0.00
2023-01-21T07:01:50.976Z,0.00
2023-01-21T07:02:50.929Z,0.00
2023-01-21T07:03:50.913Z,0.00
2023-01-21T07:04:50.937Z,0.00
2023-01-21T07:05:50.867Z,0.00
2023-01-21T07:06:50.868Z,0.00
2023-01-21T07:07:50.852Z,0.00
2023-01-21T07:08:50.862Z,0.00
2023-01-21T07:09:50.841Z,0.00
2023-01-21T07:10:50.825Z,0.00
2023-01-21T07:11:50.834Z,0.00
2023-01-21T07:12:50.801Z,0.00
2023-01-21T07:13:50.802Z,0.00
2023-01-21T07:14:50.802Z,0.00
2023-01-21T07:15:50.794Z,0.00
2023-01-21T07:16:50.765Z,0.00
2023-01-21T07:17:50.790Z,0.00
2023-01-21T07:18:50.738Z,0.00
2023-01-21T07:19:50.758Z,0.00
2023-01-21T07:20:50.715Z,0.00
2023-01-21T07:21:50.721Z,0.00
2023-01-21T07:22:50.707Z,0.00
2023-01-21T07:23:50.685Z,0.00
2023-01-21T07:24:50.678Z,0.00
2023-01-21T07:25:50.708Z,0.00
2023-01-21T07:26:50.655Z,0.00
2023-01-21T07:27:50.676Z,0.00
2023-01-21T07:28:50.660Z,0.00
2023-01-21T07:29:50.685Z,0.00
2023-01-21T07:30:50.683Z,0.00
2023-01-21T07:31:50.687Z,0.00
2023-01-21T07:32:50.599Z,5.62
2023-01-21T07:33:50.607Z,5.62
2023-01-21T07:34:50.601Z,5.62
2023-01-21T07:35:50.629Z,5.62
2023-01-21T07:36:50.605Z,5.62
2023-01-21T07:37:50.562Z,5.62
2023-01-21T07:38:50.536Z,5.62
2023-01-21T07:39:51.215Z,5.62
2023-01-21T07:40:50.622Z,5.62
2023-01-21T07:41:50.511Z,5.62
2023-01-21T07:42:50.495Z,5.62
2023-01-21T07:43:50.519Z,5.62
2023-01-21T07:44:50.491Z,5.62
2023-01-21T07:45:50.516Z,5.62
2023-01-21T07:46:50.525Z,5.62
2023-01-21T07:47:50.518Z,5.62
2023-01-21T07:48:50.439Z,5.62
2023-01-21T07:49:50.445Z,5.62
2023-01-21T07:50:50.485Z,11.25
2023-01-21T07:51:50.428Z,11.25
2023-01-21T07:52:50.419Z,11.25
2023-01-21T07:53:50.428Z,11.25
2023-01-21T07:54:50.427Z,11.25
2023-01-21T07:55:50.374Z,11.25
2023-01-21T07:56:50.375Z,11.25
2023-01-21T07:57:50.351Z,11.25
2023-01-21T07:58:50.357Z,11.25
2023-01-21T07:59:50.339Z,11.25
2023-01-21T08:00:50.326Z,11.25
2023-01-21T08:01:50.439Z,11.25
2023-01-21T08:02:50.394Z,11.25
2023-01-21T08:03:50.294Z,11.25
2023-01-21T08:04:50.291Z,11.25
2023-01-21T08:05:50.314Z,11.25
2023-01-21T08:06:50.272Z,11.25
2023-01-21T08:07:50.297Z,11.25
2023-01-21T08:08:50.245Z,11.25
2023-01-21T08:09:50.239Z,16.88
2023-01-21T08:10:50.302Z,16.88
2023-01-21T08:11:50.229Z,16.88
2023-01-21T08:12:50.224Z,16.88
2023-01-21T08:13:50.218Z,16.88
2023-01-21T08:14:50.181Z,16.88
2023-01-21T08:15:50.168Z,16.88
2023-01-21T08:16:50.460Z,16.88
2023-01-21T08:17:50.164Z,16.88
2023-01-21T08:18:50.190Z,11.25
2023-01-21T08:19:50.150Z,11.25
2023-01-21T08:20:50.130Z,11.25
2023-01-21T08:21:50.150Z,11.25
2023-01-21T08:22:50.105Z,16.88
2023-01-21T08:23:50.137Z,16.88
2023-01-21T08:24:50.138Z,16.88
2023-01-21T08:25:50.123Z,16.88
2023-01-21T08:26:50.075Z,16.88
2023-01-21T08:27:50.079Z,16.88
2023-01-21T08:28:50.080Z,16.88
2023-01-21T08:29:50.043Z,16.88
2023-01-21T08:30:50.095Z,16.88
2023-01-21T08:31:50.091Z,16.88
2023-01-21T08:32:50.050Z,16.88
2023-01-21T08:33:50.037Z,16.88
2023-01-21T08:34:50.050Z,16.88
2023-01-21T08:35:49.982Z,16.88
2023-01-21T08:36:50.004Z,16.88
2023-01-21T08:37:50.030Z,16.88
2023-01-21T08:38:49.979Z,16.88
2023-01-21T08:39:49.992Z,16.88
2023-01-21T08:40:49.953Z,16.88
2023-01-21T08:41:49.929Z,16.88
2023-01-21T08:42:49.902Z,16.88
2023-01-21T08:43:49.925Z,16.88
2023-01-21T08:44:49.989Z,16.88
2023-01-21T08:45:49.912Z,22.50
2023-01-21T08:46:49.905Z,22.50
2023-01-21T08:47:49.879Z,22.50
2023-01-21T08:48:49.907Z,22.50
2023-01-21T08:49:49.844Z,22.50
2023-01-21T08:50:49.953Z,22.50
2023-01-21T08:51:49.911Z,22.50
2023-01-21T08:52:49.834Z,22.50
2023-01-21T08:53:49.854Z,28.12
2023-01-21T08:54:50.854Z,28.12
2023-01-21T08:55:49.815Z,28.12
2023-01-21T08:56:49.818Z,28.12
2023-01-21T08:57:49.774Z,28.12
2023-01-21T08:58:49.771Z,28.12
2023-01-21T08:59:49.756Z,33.75
2023-01-21T09:00:49.804Z,33.75
2023-01-21T09:01:49.811Z,33.75
2023-01-21T09:02:51.586Z,33.75
2023-01-21T09:03:49.724Z,33.75
2023-01-21T09:04:49.731Z,33.75
2023-01-21T09:05:49.713Z,33.75
2023-01-21T09:06:49.707Z,33.75
2023-01-21T09:07:49.699Z,33.75
2023-01-21T09:08:49.679Z,33.75
2023-01-21T09:09:49.661Z,33.75
2023-01-21T09:10:49.683Z,33.75
2023-01-21T09:11:49.719Z,33.75
2023-01-21T09:12:49.665Z,33.75
2023-01-21T09:13:49.626Z,33.75
2023-01-21T09:14:49.594Z,33.75
2023-01-21T09:15:49.617Z,39.38
2023-01-21T09:16:49.712Z,39.38
2023-01-21T09:17:49.577Z,39.38
2023-01-21T09:18:49.554Z,39.38
2023-01-21T09:19:49.563Z,39.38
2023-01-21T09:20:49.549Z,39.38
2023-01-21T09:21:49.578Z,39.38
2023-01-21T09:22:49.532Z,39.38
2023-01-21T09:23:49.531Z,39.38
2023-01-21T09:24:49.502Z,39.38
2023-01-21T09:25:49.491Z,39.38
2023-01-21T09:26:49.509Z,39.38
2023-01-21T09:27:49.472Z,39.38
2023-01-21T09:28:49.516Z,39.38
2023-01-21T09:29:49.462Z,39.38
2023-01-21T09:30:49.547Z,39.38
2023-01-21T09:31:49.558Z,39.38
2023-01-21T09:32:49.453Z,39.38
2023-01-21T09:33:49.481Z,45.00
2023-01-21T09:34:49.412Z,45.00
2023-01-21T09:35:49.409Z,39.38
2023-01-21T09:36:49.406Z,39.38
2023-01-21T09:37:49.420Z,39.38
2023-01-21T09:38:49.361Z,45.00
2023-01-21T09:39:49.350Z,39.38
2023-01-21T09:40:49.337Z,45.00
2023-01-21T09:41:49.368Z,45.00
2023-01-21T09:42:49.357Z,45.00
2023-01-21T09:43:49.356Z,45.00
2023-01-21T09:44:49.322Z,45.00
2023-01-21T09:45:49.346Z,45.00
2023-01-21T09:46:49.297Z,45.00
2023-01-21T09:47:49.300Z,45.00
2023-01-21T09:48:49.276Z,45.00
2023-01-21T09:49:49.297Z,45.00
2023-01-21T09:50:49.268Z,39.38
2023-01-21T09:51:52.152Z,39.38
2023-01-21T09:52:49.255Z,39.38
2023-01-21T09:53:49.227Z,39.38
2023-01-21T09:54:49.225Z,39.38
2023-01-21T09:55:49.191Z,39.38
2023-01-21T09:56:49.215Z,39.38
2023-01-21T09:57:49.174Z,39.38
2023-01-21T09:58:49.188Z,39.38
2023-01-21T09:59:49.192Z,39.38
2023-01-21T10:00:49.226Z,45.00
2023-01-21T10:01:49.143Z,39.38
2023-01-21T10:02:49.131Z,39.38
2023-01-21T10:03:49.116Z,39.38
2023-01-21T10:04:49.266Z,39.38
2023-01-21T10:05:49.100Z,39.38
2023-01-21T10:06:49.108Z,39.38
2023-01-21T10:07:49.099Z,39.38
2023-01-21T10:08:49.069Z,39.38
2023-01-21T10:09:49.080Z,39.38
2023-01-21T10:10:49.087Z,39.38
2023-01-21T10:11:49.045Z,39.38
2023-01-21T10:12:49.062Z,39.38
2023-01-21T10:13:49.057Z,33.75
2023-01-21T10:14:49.010Z,39.38
2023-01-21T10:15:49.013Z,39.38
2023-01-21T10:16:49.122Z,39.38
2023-01-21T10:17:48.987Z,39.38
2023-01-21T10:18:48.983Z,39.38
2023-01-21T10:19:49.050Z,39.38
2023-01-21T10:20:49.017Z,39.38
2023-01-21T10:21:48.941Z,39.38
2023-01-21T10:22:48.972Z,39.38
2023-01-21T10:23:49.124Z,39.38
2023-01-21T10:24:48.929Z,39.38
2023-01-21T10:25:48.898Z,39.38
2023-01-21T10:26:48.897Z,39.38
2023-01-21T10:27:48.908Z,39.38
2023-01-21T10:28:48.885Z,45.00
2023-01-21T10:29:48.868Z,45.00
2023-01-21T10:30:49.145Z,45.00
2023-01-21T10:31:48.944Z,50.62
2023-01-21T10:32:48.879Z,45.00
2023-01-21T10:33:48.821Z,45.00
2023-01-21T10:34:48.812Z,45.00
2023-01-21T10:35:48.804Z,45.00
2023-01-21T10:36:48.804Z,50.62
2023-01-21T10:37:48.840Z,50.62
2023-01-21T10:38:48.777Z,50.62
2023-01-21T10:39:48.763Z,50.62
2023-01-21T10:40:48.770Z,56.25
2023-01-21T10:41:48.776Z,56.25
2023-01-21T10:42:51.351Z,56.25
2023-01-21T10:43:48.758Z,56.25
2023-01-21T10:44:48.757Z,56.25
2023-01-21T10:45:48.766Z,56.25
2023-01-21T10:46:48.715Z,56.25
2023-01-21T10:47:48.741Z,56.25
2023-01-21T10:48:48.672Z,56.25
2023-01-21T10:49:48.684Z,56.25
2023-01-21T10:50:48.707Z,50.62
2023-01-21T10:51:48.674Z,50.62
2023-01-21T10:52:48.636Z,45.00
2023-01-21T10:53:48.631Z,45.00
2023-01-21T10:54:48.623Z,45.00
2023-01-21T10:55:48.626Z,50.62
2023-01-21T10:56:48.617Z,50.62
2023-01-21T10:57:48.592Z,45.00
2023-01-21T10:58:48.614Z,45.00
2023-01-21T10:59:48.606Z,45.00
2023-01-21T11:00:48.560Z,45.00
2023-01-21T11:01:48.554Z,50.62
2023-01-21T11:02:48.570Z,45.00
2023-01-21T11:03:48.551Z,50.62
2023-01-21T11:04:48.524Z,50.62
2023-01-21T11:05:49.999Z,50.62
2023-01-21T11:06:48.513Z,56.25
2023-01-21T11:07:48.503Z,56.25
2023-01-21T11:08:48.528Z,56.25
2023-01-21T11:09:48.519Z,56.25
2023-01-21T11:10:48.516Z,56.25
2023-01-21T11:11:48.493Z,50.62
2023-01-21T11:12:48.444Z,50.62
2023-01-21T11:13:48.428Z,45.00
2023-01-21T11:14:48.458Z,45.00
2023-01-21T11:15:48.464Z,45.00
2023-01-21T11:16:48.441Z,45.00
2023-01-21T11:17:48.414Z,45.00
2023-01-21T11:18:48.379Z,45.00
2023-01-21T11:19:48.405Z,39.38
2023-01-21T11:20:48.375Z,39.38
2023-01-21T11:21:48.589Z,45.00
2023-01-21T11:22:48.359Z,45.00
2023-01-21T11:23:48.328Z,45.00
2023-01-21T11:24:48.355Z,45.00
2023-01-21T11:25:48.338Z,45.00
2023-01-21T11:26:48.310Z,45.00
2023-01-21T11:27:48.281Z,39.38
2023-01-21T11:28:48.296Z,39.38
2023-01-21T11:29:48.287Z,39.38
2023-01-21T11:30:51.347Z,39.38
2023-01-21T11:31:48.366Z,39.38
2023-01-21T11:32:48.291Z,39.38
2023-01-21T11:33:48.222Z,39.38
2023-01-21T11:34:48.217Z,33.75
2023-01-21T11:35:48.241Z,33.75
2023-01-21T11:36:48.220Z,33.75
2023-01-21T11:37:48.201Z,28.12
2023-01-21T11:38:48.176Z,28.12
2023-01-21T11:39:48.163Z,28.12
2023-01-21T11:40:48.159Z,28.12
2023-01-21T11:41:48.151Z,22.50
2023-01-21T11:42:48.159Z,28.12
2023-01-21T11:43:48.118Z,28.12
2023-01-21T11:44:48.123Z,28.12
2023-01-21T11:45:48.134Z,28.12
2023-01-21T11:46:48.115Z,28.12
2023-01-21T11:47:48.078Z,28.12
2023-01-21T11:48:48.104Z,28.12
2023-01-21T11:49:48.105Z,28.12
2023-01-21T11:50:48.091Z,28.12
2023-01-21T11:51:48.079Z,28.12
2023-01-21T11:52:48.032Z,28.12
2023-01-21T11:53:48.039Z,28.12
2023-01-21T11:54:48.033Z,28.12
2023-01-21T11:55:48.024Z,28.12
2023-01-21T11:56:47.994Z,22.50
2023-01-21T11:57:47.997Z,22.50
2023-01-21T11:58:48.004Z,22.50
2023-01-21T11:59:48.080Z,28.12
2023-01-21T12:00:47.962Z,28.12
2023-01-21T12:01:47.981Z,28.12
2023-01-21T12:02:47.962Z,33.75
2023-01-21T12:03:47.995Z,33.75
2023-01-21T12:04:47.944Z,33.75
2023-01-21T12:05:47.930Z,33.75
2023-01-21T12:06:47.910Z,28.12
2023-01-21T12:07:47.886Z,28.12
2023-01-21T12:08:47.907Z,28.12
2023-01-21T12:09:47.891Z,28.12
2023-01-21T12:10:47.853Z,28.12
2023-01-21T12:11:47.895Z,28.12
2023-01-21T12:12:47.843Z,28.12
2023-01-21T12:13:47.826Z,28.12
2023-01-21T12:14:47.818Z,28.12
2023-01-21T12:15:47.877Z,28.12
2023-01-21T12:16:47.817Z,28.12
2023-01-21T12:17:47.794Z,22.50
2023-01-21T12:18:47.811Z,22.50
2023-01-21T12:19:47.765Z,22.50
2023-01-21T12:20:47.793Z,22.50
2023-01-21T12:21:47.790Z,22.50
2023-01-21T12:22:47.745Z,22.50
2023-01-21T12:23:47.754Z,22.50
2023-01-21T12:24:47.719Z,22.50
2023-01-21T12:25:47.711Z,22.50
2023-01-21T12:26:47.706Z,22.50
2023-01-21T12:27:47.705Z,22.50
2023-01-21T12:28:47.697Z,22.50
2023-01-21T12:29:47.668Z,22.50
2023-01-21T12:30:47.794Z,28.12
2023-01-21T12:31:47.701Z,22.50
2023-01-21T12:32:47.650Z,22.50
2023-01-21T12:33:47.679Z,22.50
2023-01-21T12:34:47.639Z,22.50
2023-01-21T12:35:47.609Z,22.50
2023-01-21T12:36:47.613Z,22.50
2023-01-21T12:37:47.589Z,28.12
2023-01-21T12:38:47.602Z,28.12
2023-01-21T12:39:47.637Z,28.12
2023-01-21T12:40:47.571Z,22.50
2023-01-21T12:41:47.570Z,22.50
2023-01-21T12:42:47.573Z,22.50
2023-01-21T12:43:47.530Z,22.50
2023-01-21T12:44:47.545Z,22.50
2023-01-21T12:45:47.509Z,22.50
2023-01-21T12:46:47.612Z,22.50
2023-01-21T12:47:47.512Z,22.50
2023-01-21T12:48:47.509Z,22.50
2023-01-21T12:49:47.475Z,22.50
2023-01-21T12:50:47.528Z,22.50
2023-01-21T12:51:47.453Z,22.50
2023-01-21T12:52:47.451Z,22.50
2023-01-21T12:53:47.432Z,22.50
2023-01-21T12:54:47.451Z,22.50
2023-01-21T12:55:47.435Z,22.50
2023-01-21T12:56:47.418Z,22.50
2023-01-21T12:57:47.438Z,22.50
2023-01-21T12:58:47.395Z,22.50
2023-01-21T12:59:47.379Z,22.50
2023-01-21T13:00:47.408Z,22.50
2023-01-21T13:01:47.447Z,22.50
2023-01-21T13:02:47.371Z,22.50
2023-01-21T13:03:47.336Z,22.50
2023-01-21T13:04:47.326Z,22.50
2023-01-21T13:05:47.342Z,22.50
2023-01-21T13:06:54.246Z,28.12
2023-01-21T13:07:47.335Z,28.12